createdAt,value
2023-01-08T00:00:27.921Z,46.53
2023-01-08T00:01:27.839Z,52.72
2023-01-08T00:02:27.834Z,46.61
2023-01-08T00:03:27.893Z,46.86
2023-01-08T00:04:27.853Z,47.25
2023-01-08T00:05:27.808Z,45.44
2023-01-08T00:06:27.800Z,50.56
2023-01-08T00:07:27.796Z,53.99
2023-01-08T00:08:27.804Z,46.28
2023-01-08T00:09:27.895Z,40.39
2023-01-08T00:10:28.774Z,52.10
2023-01-08T00:11:27.763Z,40.60
2023-01-08T00:12:27.755Z,57.15
2023-01-08T00:13:27.747Z,48.63
2023-01-08T00:14:27.817Z,48.39
2023-01-08T00:15:27.757Z,45.19
2023-01-08T00:16:27.815Z,48.32
2023-01-08T00:17:27.712Z,45.68
2023-01-08T00:18:27.720Z,40.31
2023-01-08T00:19:27.717Z,44.60
2023-01-08T00:20:27.725Z,41.49
2023-01-08T00:21:27.690Z,51.92
2023-01-08T00:22:27.690Z,44.96
2023-01-08T00:23:27.670Z,38.54
2023-01-08T00:24:27.666Z,40.69
2023-01-08T00:25:27.689Z,45.54
2023-01-08T00:26:27.644Z,44.24
2023-01-08T00:27:27.646Z,46.83
2023-01-08T00:28:27.634Z,41.84
2023-01-08T00:29:27.639Z,48.65
2023-01-08T00:30:27.759Z,44.39
2023-01-08T00:31:27.618Z,46.05
2023-01-08T00:32:27.601Z,43.01
2023-01-08T00:33:27.598Z,52.33
2023-01-08T00:34:27.601Z,53.88
2023-01-08T00:35:27.615Z,48.14
2023-01-08T00:36:27.582Z,45.02
2023-01-08T00:37:27.563Z,47.77
2023-01-08T00:38:27.578Z,38.76
2023-01-08T00:39:27.552Z,44.94
2023-01-08T00:40:27.566Z,48.57
2023-01-08T00:41:27.561Z,46.50
2023-01-08T00:42:27.522Z,39.88
2023-01-08T00:43:27.522Z,50.11
2023-01-08T00:44:27.512Z,42.03
2023-01-08T00:45:27.531Z,39.93
2023-01-08T00:46:27.588Z,40.55
2023-01-08T00:47:27.495Z,41.14
2023-01-08T00:48:27.485Z,49.96
2023-01-08T00:49:27.481Z,41.56
2023-01-08T00:50:27.489Z,38.91
2023-01-08T00:51:27.459Z,42.13
2023-01-08T00:52:27.454Z,52.05
2023-01-08T00:53:27.441Z,38.86
2023-01-08T00:54:27.450Z,49.01
2023-01-08T00:55:27.478Z,49.86
2023-01-08T00:56:27.424Z,50.11
2023-01-08T00:57:27.426Z,48.89
2023-01-08T00:58:27.414Z,41.70
2023-01-08T00:59:27.407Z,44.27
2023-01-08T01:00:27.410Z,40.02
2023-01-08T01:01:28.435Z,50.34
2023-01-08T01:02:27.454Z,46.74
2023-01-08T01:03:27.400Z,43.99
2023-01-08T01:04:27.431Z,38.48
2023-01-08T01:05:27.386Z,38.54
2023-01-08T01:06:27.345Z,43.65
2023-01-08T01:07:27.352Z,48.06
2023-01-08T01:08:27.335Z,48.18
2023-01-08T01:09:27.323Z,53.49
2023-01-08T01:10:27.351Z,48.68
2023-01-08T01:11:27.314Z,43.01
2023-01-08T01:12:27.303Z,38.74
2023-01-08T01:13:27.309Z,44.03
2023-01-08T01:14:27.288Z,55.45
2023-01-08T01:15:27.275Z,52.87
2023-01-08T01:16:27.383Z,44.51
2023-01-08T01:17:27.269Z,43.34
2023-01-08T01:18:27.370Z,51.33
2023-01-08T01:19:27.248Z,47.03
2023-01-08T01:20:27.240Z,45.19
2023-01-08T01:21:27.266Z,39.73
2023-01-08T01:22:27.232Z,50.57
2023-01-08T01:23:27.212Z,44.59
2023-01-08T01:24:27.204Z,51.27
2023-01-08T01:25:27.205Z,53.37
2023-01-08T01:26:27.228Z,43.14
2023-01-08T01:27:27.179Z,48.41
2023-01-08T01:28:27.168Z,49.03
2023-01-08T01:29:27.164Z,50.00
2023-01-08T01:30:27.156Z,49.50
2023-01-08T01:31:27.176Z,40.22
2023-01-08T01:32:27.155Z,41.86
2023-01-08T01:33:27.130Z,41.24
2023-01-08T01:34:27.208Z,55.43
2023-01-08T01:35:27.111Z,45.49
2023-01-08T01:36:27.140Z,46.83
2023-01-08T01:37:27.105Z,47.35
2023-01-08T01:38:27.086Z,46.81
2023-01-08T01:39:27.192Z,44.34
2023-01-08T01:40:27.079Z,42.85
2023-01-08T01:41:27.244Z,47.43
2023-01-08T01:42:27.055Z,46.05
2023-01-08T01:43:27.054Z,41.98
2023-01-08T01:44:27.040Z,42.74
2023-01-08T01:45:27.038Z,43.87
2023-01-08T01:46:27.055Z,38.53
2023-01-08T01:47:27.045Z,41.33
2023-01-08T01:48:27.007Z,53.05
2023-01-08T01:49:27.010Z,42.85
2023-01-08T01:50:27.082Z,44.50
2023-01-08T01:51:27.017Z,44.12
2023-01-08T01:52:26.979Z,40.30
2023-01-08T01:53:26.979Z,40.19
2023-01-08T01:54:26.962Z,44.37
2023-01-08T01:55:26.961Z,44.86
2023-01-08T01:56:26.973Z,39.00
2023-01-08T01:57:26.939Z,39.24
2023-01-08T01:58:26.943Z,45.36
2023-01-08T01:59:26.929Z,44.19
2023-01-08T02:00:26.906Z,49.18
2023-01-08T02:01:27.131Z,43.23
2023-01-08T02:02:26.993Z,45.54
2023-01-08T02:03:26.893Z,45.92
2023-01-08T02:04:26.919Z,52.90
2023-01-08T02:05:26.874Z,53.16
2023-01-08T02:06:26.950Z,39.68
2023-01-08T02:07:26.890Z,45.01
2023-01-08T02:08:26.852Z,47.80
2023-01-08T02:09:26.853Z,38.75
2023-01-08T02:10:26.844Z,38.99
2023-01-08T02:11:26.833Z,43.39
2023-01-08T02:12:26.849Z,42.59
2023-01-08T02:13:26.831Z,42.06
2023-01-08T02:14:26.804Z,42.09
2023-01-08T02:15:26.803Z,38.96
2023-01-08T02:16:26.820Z,39.54
2023-01-08T02:17:26.817Z,42.97
2023-01-08T02:18:26.780Z,49.45
2023-01-08T02:19:27.061Z,39.93
2023-01-08T02:20:26.755Z,44.40
2023-01-08T02:21:26.749Z,57.07
2023-01-08T02:22:26.842Z,52.44
2023-01-08T02:23:26.741Z,44.45
2023-01-08T02:24:26.729Z,46.07
2023-01-08T02:25:26.732Z,38.61
2023-01-08T02:26:26.713Z,46.05
2023-01-08T02:27:26.731Z,45.29
2023-01-08T02:28:26.702Z,47.41
2023-01-08T02:29:26.693Z,40.39
2023-01-08T02:30:26.695Z,53.87
2023-01-08T02:31:26.690Z,46.56
2023-01-08T02:32:26.700Z,49.63
2023-01-08T02:33:26.655Z,40.22
2023-01-08T02:34:26.649Z,48.65
2023-01-08T02:35:26.642Z,48.22
2023-01-08T02:36:26.640Z,37.56
2023-01-08T02:37:26.656Z,37.37
2023-01-08T02:38:26.700Z,43.28
2023-01-08T02:39:26.638Z,49.95
2023-01-08T02:40:26.610Z,40.57
2023-01-08T02:41:26.604Z,44.68
2023-01-08T02:42:26.590Z,44.40
2023-01-08T02:43:26.608Z,52.96
2023-01-08T02:44:26.576Z,45.09
2023-01-08T02:45:26.565Z,49.62
2023-01-08T02:46:26.597Z,40.38
2023-01-08T02:47:26.576Z,44.10
2023-01-08T02:48:26.570Z,40.98
2023-01-08T02:49:26.537Z,38.19
2023-01-08T02:50:26.538Z,46.90
2023-01-08T02:51:26.528Z,50.04
2023-01-08T02:52:26.515Z,39.84
2023-01-08T02:53:26.725Z,43.63
2023-01-08T02:54:26.590Z,37.84
2023-01-08T02:55:26.507Z,39.32
2023-01-08T02:56:26.494Z,37.69
2023-01-08T02:57:26.486Z,37.91
2023-01-08T02:58:26.500Z,44.20
2023-01-08T02:59:26.469Z,56.93
2023-01-08T03:00:26.463Z,53.59
2023-01-08T03:01:26.523Z,45.58
2023-01-08T03:02:26.604Z,44.12
2023-01-08T03:03:26.475Z,45.03
2023-01-08T03:04:26.514Z,38.31
2023-01-08T03:05:26.461Z,41.02
2023-01-08T03:06:26.415Z,40.59
2023-01-08T03:07:26.408Z,37.70
2023-01-08T03:08:26.432Z,37.72
2023-01-08T03:09:26.384Z,38.23
2023-01-08T03:10:26.463Z,43.53
2023-01-08T03:11:26.364Z,39.79
2023-01-08T03:12:26.359Z,41.70
2023-01-08T03:13:26.381Z,53.88
2023-01-08T03:14:26.353Z,46.91
2023-01-08T03:15:26.336Z,38.97
2023-01-08T03:16:26.406Z,44.88
2023-01-08T03:17:26.335Z,43.23
2023-01-08T03:18:26.349Z,47.50
2023-01-08T03:19:26.320Z,44.18
2023-01-08T03:20:26.302Z,42.51
2023-01-08T03:21:26.293Z,43.67
2023-01-08T03:22:26.284Z,41.12
2023-01-08T03:23:26.297Z,40.30
2023-01-08T03:24:26.317Z,39.11
2023-01-08T03:25:26.285Z,45.89
2023-01-08T03:26:26.336Z,42.61
2023-01-08T03:27:26.279Z,38.83
2023-01-08T03:28:26.295Z,39.13
2023-01-08T03:29:26.305Z,44.80
2023-01-08T03:30:26.269Z,46.20
2023-01-08T03:31:26.216Z,45.53
2023-01-08T03:32:26.221Z,44.93
2023-01-08T03:33:26.261Z,45.91
2023-01-08T03:34:26.196Z,40.43
2023-01-08T03:35:26.192Z,47.49
2023-01-08T03:36:26.172Z,43.10
2023-01-08T03:37:26.175Z,38.43
2023-01-08T03:38:26.159Z,44.34
2023-01-08T03:39:26.181Z,43.47
2023-01-08T03:40:26.151Z,38.52
2023-01-08T03:41:26.136Z,44.62
2023-01-08T03:42:26.204Z,48.18
2023-01-08T03:43:26.125Z,43.28
2023-01-08T03:44:26.140Z,46.84
2023-01-08T03:45:26.121Z,50.29
2023-01-08T03:46:28.073Z,40.31
2023-01-08T03:47:26.091Z,38.77
2023-01-08T03:48:26.088Z,45.30
2023-01-08T03:49:26.109Z,46.65
2023-01-08T03:50:26.073Z,62.27
2023-01-08T03:51:26.059Z,43.98
2023-01-08T03:52:26.051Z,44.86
2023-01-08T03:53:26.044Z,59.69
2023-01-08T03:54:26.065Z,48.28
2023-01-08T03:55:26.033Z,46.26
2023-01-08T03:56:26.018Z,47.67
2023-01-08T03:57:26.026Z,52.08
2023-01-08T03:58:26.082Z,50.80
2023-01-08T03:59:26.033Z,42.08
2023-01-08T04:00:25.998Z,42.48
2023-01-08T04:01:26.055Z,39.27
2023-01-08T04:02:26.100Z,40.71
2023-01-08T04:03:25.977Z,46.51
2023-01-08T04:04:26.117Z,48.32
2023-01-08T04:05:25.962Z,40.09
2023-01-08T04:06:25.951Z,38.71
2023-01-08T04:07:25.945Z,44.47
2023-01-08T04:08:25.940Z,46.47
2023-01-08T04:09:25.949Z,46.90
2023-01-08T04:10:25.914Z,58.95
2023-01-08T04:11:25.910Z,45.77
2023-01-08T04:12:25.917Z,39.58
2023-01-08T04:13:25.886Z,39.95
2023-01-08T04:14:26.088Z,40.75
2023-01-08T04:15:26.015Z,41.47
2023-01-08T04:16:25.877Z,47.18
2023-01-08T04:17:25.869Z,56.05
2023-01-08T04:18:25.857Z,53.02
2023-01-08T04:19:25.862Z,48.85
2023-01-08T04:20:26.842Z,46.72
2023-01-08T04:21:25.831Z,50.21
2023-01-08T04:22:25.833Z,47.30
2023-01-08T04:23:25.814Z,52.41
2023-01-08T04:24:25.846Z,50.19
2023-01-08T04:25:25.804Z,44.88
2023-01-08T04:26:25.793Z,51.28
2023-01-08T04:27:25.789Z,44.65
2023-01-08T04:28:25.790Z,49.08
2023-01-08T04:29:25.800Z,44.52
2023-01-08T04:30:25.931Z,49.08
2023-01-08T04:31:25.822Z,49.30
2023-01-08T04:32:25.755Z,40.67
2023-01-08T04:33:25.744Z,50.44
2023-01-08T04:34:25.767Z,41.14
2023-01-08T04:35:25.736Z,55.64
2023-01-08T04:36:25.720Z,49.86
2023-01-08T04:37:25.731Z,46.66
2023-01-08T04:38:25.709Z,45.33
2023-01-08T04:39:25.727Z,47.31
2023-01-08T04:40:25.691Z,43.18
2023-01-08T04:41:25.686Z,47.50
2023-01-08T04:42:25.673Z,49.44
2023-01-08T04:43:25.686Z,45.92
2023-01-08T04:44:25.694Z,45.08
2023-01-08T04:45:25.642Z,52.74
2023-01-08T04:46:26.772Z,51.28
2023-01-08T04:47:25.631Z,44.43
2023-01-08T04:48:25.628Z,44.22
2023-01-08T04:49:25.642Z,45.90
2023-01-08T04:50:25.614Z,51.72
2023-01-08T04:51:25.621Z,48.43
2023-01-08T04:52:25.600Z,45.55
2023-01-08T04:53:25.582Z,49.02
2023-01-08T04:54:25.600Z,47.37
2023-01-08T04:55:25.564Z,58.06
2023-01-08T04:56:25.563Z,55.52
2023-01-08T04:57:25.555Z,44.58
2023-01-08T04:58:25.558Z,40.02
2023-01-08T04:59:25.583Z,48.63
2023-01-08T05:00:25.533Z,50.61
2023-01-08T05:01:25.678Z,43.22
2023-01-08T05:02:25.841Z,42.68
2023-01-08T05:03:25.546Z,51.68
2023-01-08T05:04:25.526Z,43.37
2023-01-08T05:05:25.497Z,51.10
2023-01-08T05:06:25.490Z,46.57
2023-01-08T05:07:25.474Z,43.02
2023-01-08T05:08:25.472Z,48.20
2023-01-08T05:09:25.488Z,47.71
2023-01-08T05:10:25.446Z,43.91
2023-01-08T05:11:25.458Z,40.49
2023-01-08T05:12:25.435Z,40.80
2023-01-08T05:13:25.430Z,47.57
2023-01-08T05:14:25.445Z,54.89
2023-01-08T05:15:25.424Z,53.67
2023-01-08T05:16:25.405Z,50.20
2023-01-08T05:17:25.404Z,48.61
2023-01-08T05:18:25.390Z,45.79
2023-01-08T05:19:25.417Z,48.38
2023-01-08T05:20:25.377Z,50.18
2023-01-08T05:21:25.366Z,45.84
2023-01-08T05:22:25.362Z,45.20
2023-01-08T05:23:25.352Z,50.49
2023-01-08T05:24:25.375Z,51.12
2023-01-08T05:25:25.341Z,50.96
2023-01-08T05:26:25.326Z,47.10
2023-01-08T05:27:25.324Z,46.78
2023-01-08T05:28:25.319Z,45.34
2023-01-08T05:29:25.309Z,46.25
2023-01-08T05:30:25.318Z,47.90
2023-01-08T05:31:25.357Z,48.15
2023-01-08T05:32:25.300Z,46.72
2023-01-08T05:33:25.290Z,47.75
2023-01-08T05:34:25.341Z,48.73
2023-01-08T05:35:25.288Z,46.59
2023-01-08T05:36:25.246Z,51.30
2023-01-08T05:37:25.243Z,54.32
2023-01-08T05:38:25.236Z,48.74
2023-01-08T05:39:25.226Z,51.01
2023-01-08T05:40:25.246Z,52.23
2023-01-08T05:41:25.214Z,53.75
2023-01-08T05:42:25.205Z,47.92
2023-01-08T05:43:25.194Z,48.68
2023-01-08T05:44:25.193Z,57.01
2023-01-08T05:45:25.203Z,45.09
2023-01-08T05:46:25.221Z,48.60
2023-01-08T05:47:25.159Z,53.30
2023-01-08T05:48:25.157Z,50.32
2023-01-08T05:49:25.154Z,52.95
2023-01-08T05:50:25.168Z,52.78
2023-01-08T05:51:25.131Z,51.58
2023-01-08T05:52:25.137Z,51.29
2023-01-08T05:53:25.122Z,51.05
2023-01-08T05:54:25.102Z,54.34
2023-01-08T05:55:25.126Z,48.05
2023-01-08T05:56:25.109Z,44.68
2023-01-08T05:57:25.087Z,47.51
2023-01-08T05:58:25.076Z,65.03
2023-01-08T05:59:25.077Z,47.86
2023-01-08T06:00:25.086Z,45.23
2023-01-08T06:01:25.131Z,45.26
2023-01-08T06:02:25.104Z,52.43
2023-01-08T06:03:25.042Z,49.45
2023-01-08T06:04:25.143Z,44.50
2023-01-08T06:05:25.045Z,49.03
2023-01-08T06:06:25.087Z,46.81
2023-01-08T06:07:25.012Z,48.20
2023-01-08T06:08:25.004Z,47.70
2023-01-08T06:09:24.990Z,51.96
2023-01-08T06:10:25.007Z,45.78
2023-01-08T06:11:24.975Z,45.12
2023-01-08T06:12:24.976Z,52.27
2023-01-08T06:13:24.956Z,49.82
2023-01-08T06:14:24.960Z,46.03
2023-01-08T06:15:24.974Z,45.78
2023-01-08T06:16:24.934Z,43.21
2023-01-08T06:17:24.930Z,46.57
2023-01-08T06:18:24.917Z,42.17
2023-01-08T06:19:24.947Z,41.98
2023-01-08T06:20:24.903Z,47.00
2023-01-08T06:21:24.896Z,53.75
2023-01-08T06:22:24.967Z,45.39
2023-01-08T06:23:24.890Z,47.18
2023-01-08T06:24:24.897Z,46.39
2023-01-08T06:25:24.863Z,50.37
2023-01-08T06:26:24.854Z,49.86
2023-01-08T06:27:24.846Z,55.62
2023-01-08T06:28:24.839Z,49.09
2023-01-08T06:29:24.880Z,48.48
2023-01-08T06:30:24.851Z,42.55
2023-01-08T06:31:24.862Z,44.11
2023-01-08T06:32:24.820Z,48.22
2023-01-08T06:33:24.803Z,48.89
2023-01-08T06:34:24.795Z,50.92
2023-01-08T06:35:24.807Z,46.62
2023-01-08T06:36:24.785Z,47.45
2023-01-08T06:37:24.791Z,45.20
2023-01-08T06:38:24.843Z,43.08
2023-01-08T06:39:24.751Z,46.54
2023-01-08T06:40:24.773Z,47.52
2023-01-08T06:41:24.746Z,55.59
2023-01-08T06:42:24.735Z,49.96
2023-01-08T06:43:24.724Z,46.28
2023-01-08T06:44:24.709Z,52.39
2023-01-08T06:45:24.737Z,57.37
2023-01-08T06:46:24.749Z,53.95
2023-01-08T06:47:24.692Z,50.25
2023-01-08T06:48:24.684Z,53.63
2023-01-08T06:49:24.667Z,52.83
2023-01-08T06:50:24.695Z,53.06
2023-01-08T06:51:24.661Z,49.85
2023-01-08T06:52:24.651Z,48.88
2023-01-08T06:53:24.648Z,46.90
2023-01-08T06:54:24.646Z,49.79
2023-01-08T06:55:24.657Z,48.36
2023-01-08T06:56:24.620Z,47.32
2023-01-08T06:57:24.609Z,49.21
2023-01-08T06:58:24.612Z,56.01
2023-01-08T06:59:24.608Z,48.37
2023-01-08T07:00:24.615Z,50.51
2023-01-08T07:01:24.694Z,49.12
2023-01-08T07:02:25.682Z,44.05
2023-01-08T07:03:25.605Z,46.34
2023-01-08T07:04:24.551Z,50.81
2023-01-08T07:05:24.583Z,50.14
2023-01-08T07:06:24.543Z,47.84
2023-01-08T07:07:24.550Z,50.04
2023-01-08T07:08:24.535Z,48.97
2023-01-08T07:09:24.527Z,49.44
2023-01-08T07:10:24.534Z,43.73
2023-01-08T07:11:24.503Z,47.83
2023-01-08T07:12:24.494Z,50.55
2023-01-08T07:13:24.519Z,49.27
2023-01-08T07:14:24.485Z,47.12
2023-01-08T07:15:24.499Z,49.82
2023-01-08T07:16:24.665Z,51.23
2023-01-08T07:17:24.453Z,46.78
2023-01-08T07:18:24.445Z,46.08
2023-01-08T07:19:24.440Z,54.57
2023-01-08T07:20:24.456Z,49.86
2023-01-08T07:21:24.427Z,50.23
2023-01-08T07:22:24.414Z,52.56
2023-01-08T07:23:24.404Z,49.07
2023-01-08T07:24:24.399Z,54.05
2023-01-08T07:25:25.941Z,51.22
2023-01-08T07:26:24.455Z,51.62
2023-01-08T07:27:24.393Z,49.42
2023-01-08T07:28:24.369Z,54.56
2023-01-08T07:29:24.376Z,55.76
2023-01-08T07:30:29.715Z,50.54
2023-01-08T07:31:26.386Z,48.97
2023-01-08T07:32:24.335Z,50.00
2023-01-08T07:33:24.344Z,51.63
2023-01-08T07:34:24.333Z,55.60
2023-01-08T07:35:24.335Z,44.99
2023-01-08T07:36:24.307Z,48.56
2023-01-08T07:37:24.302Z,53.78
2023-01-08T07:38:24.295Z,55.04
2023-01-08T07:39:24.425Z,50.70
2023-01-08T07:40:24.313Z,51.51
2023-01-08T07:41:24.261Z,52.41
2023-01-08T07:42:24.344Z,51.21
2023-01-08T07:43:24.249Z,52.29
2023-01-08T07:44:24.237Z,52.88
2023-01-08T07:45:24.254Z,47.47
2023-01-08T07:46:24.271Z,51.01
2023-01-08T07:47:24.210Z,53.57
2023-01-08T07:48:24.199Z,50.35
2023-01-08T07:49:24.196Z,47.13
2023-01-08T07:50:24.212Z,48.05
2023-01-08T07:51:24.181Z,53.22
2023-01-08T07:52:24.169Z,52.24
2023-01-08T07:53:24.171Z,53.09
2023-01-08T07:54:24.154Z,51.82
2023-01-08T07:55:24.175Z,48.89
2023-01-08T07:56:24.140Z,53.07
2023-01-08T07:57:24.131Z,46.56
2023-01-08T07:58:24.207Z,52.44
2023-01-08T07:59:24.115Z,48.76
2023-01-08T08:00:24.136Z,47.27
2023-01-08T08:01:24.219Z,50.92
2023-01-08T08:02:24.244Z,50.95
2023-01-08T08:03:24.111Z,48.31
2023-01-08T08:04:24.077Z,49.67
2023-01-08T08:05:24.103Z,54.54
2023-01-08T08:06:24.062Z,51.78
2023-01-08T08:07:24.060Z,53.78
2023-01-08T08:08:24.050Z,52.87
2023-01-08T08:09:24.038Z,57.97
2023-01-08T08:10:24.052Z,52.62
2023-01-08T08:11:24.021Z,53.63
2023-01-08T08:12:24.009Z,54.53
2023-01-08T08:13:24.006Z,54.62
2023-01-08T08:14:24.081Z,56.58
2023-01-08T08:15:24.024Z,58.05
2023-01-08T08:16:24.038Z,55.95
2023-01-08T08:17:24.974Z,53.73
2023-01-08T08:18:23.966Z,55.50
2023-01-08T08:19:23.962Z,58.96
2023-01-08T08:20:23.979Z,55.25
2023-01-08T08:21:23.943Z,54.20
2023-01-08T08:22:23.928Z,56.92
2023-01-08T08:23:23.922Z,55.40
2023-01-08T08:24:23.913Z,55.62
2023-01-08T08:25:23.930Z,50.26
2023-01-08T08:26:23.899Z,55.53
2023-01-08T08:27:23.888Z,52.61
2023-01-08T08:28:23.875Z,48.60
2023-01-08T08:29:23.879Z,51.56
2023-01-08T08:30:23.965Z,53.64
2023-01-08T08:31:23.900Z,49.76
2023-01-08T08:32:23.852Z,59.43
2023-01-08T08:33:23.842Z,50.92
2023-01-08T08:34:23.833Z,55.07
2023-01-08T08:35:23.848Z,51.36
2023-01-08T08:36:23.815Z,52.06
2023-01-08T08:37:23.814Z,56.09
2023-01-08T08:38:24.232Z,55.50
2023-01-08T08:39:24.798Z,54.45
2023-01-08T08:40:23.809Z,54.68
2023-01-08T08:41:23.779Z,53.78
2023-01-08T08:42:23.806Z,52.95
2023-01-08T08:43:23.765Z,55.83
2023-01-08T08:44:23.760Z,56.74
2023-01-08T08:45:23.766Z,54.95
2023-01-08T08:46:24.766Z,57.51
2023-01-08T08:47:23.737Z,53.74
2023-01-08T08:48:23.729Z,55.10
2023-01-08T08:49:23.721Z,49.72
2023-01-08T08:50:23.780Z,56.35
2023-01-08T08:51:23.717Z,48.77
2023-01-08T08:52:23.696Z,51.33
2023-01-08T08:53:23.696Z,54.12
2023-01-08T08:54:23.680Z,53.71
2023-01-08T08:55:23.697Z,49.86
2023-01-08T08:56:23.665Z,48.84
2023-01-08T08:57:23.654Z,54.31
2023-01-08T08:58:23.650Z,55.51
2023-01-08T08:59:23.641Z,54.11
2023-01-08T09:00:23.659Z,55.61
2023-01-08T09:01:23.712Z,53.95
2023-01-08T09:02:23.787Z,49.33
2023-01-08T09:03:23.668Z,51.71
2023-01-08T09:04:23.603Z,55.43
2023-01-08T09:05:23.618Z,51.52
2023-01-08T09:06:23.586Z,54.58
2023-01-08T09:07:23.578Z,60.61
2023-01-08T09:08:23.575Z,52.05
2023-01-08T09:09:23.569Z,48.06
2023-01-08T09:10:23.596Z,50.14
2023-01-08T09:11:23.551Z,57.60
2023-01-08T09:12:23.547Z,56.15
2023-01-08T09:13:23.541Z,51.63
2023-01-08T09:14:23.531Z,58.91
2023-01-08T09:15:23.551Z,49.43
2023-01-08T09:16:23.543Z,53.19
2023-01-08T09:17:23.502Z,51.53
2023-01-08T09:18:23.583Z,52.73
2023-01-08T09:19:23.495Z,56.53
2023-01-08T09:20:23.500Z,56.21
2023-01-08T09:21:23.469Z,52.43
2023-01-08T09:22:23.467Z,50.61
2023-01-08T09:23:23.462Z,54.41
2023-01-08T09:24:23.451Z,54.26
2023-01-08T09:25:23.474Z,61.40
2023-01-08T09:26:23.434Z,55.73
2023-01-08T09:27:23.437Z,56.57
2023-01-08T09:28:23.421Z,55.16
2023-01-08T09:29:23.414Z,55.83
2023-01-08T09:30:23.430Z,57.47
2023-01-08T09:31:23.466Z,55.04
2023-01-08T09:32:23.388Z,54.70
2023-01-08T09:33:23.383Z,56.10
2023-01-08T09:34:23.458Z,54.69
2023-01-08T09:35:23.394Z,56.34
2023-01-08T09:36:23.367Z,58.71
2023-01-08T09:37:23.342Z,52.52
2023-01-08T09:38:23.352Z,51.76
2023-01-08T09:39:23.366Z,52.55
2023-01-08T09:40:23.362Z,54.87
2023-01-08T09:41:24.319Z,51.95
2023-01-08T09:42:23.305Z,52.00
2023-01-08T09:43:23.302Z,55.22
2023-01-08T09:44:23.294Z,54.85
2023-01-08T09:45:23.313Z,53.79
2023-01-08T09:46:23.355Z,51.12
2023-01-08T09:47:23.277Z,55.62
2023-01-08T09:48:23.256Z,55.98
2023-01-08T09:49:23.249Z,53.99
2023-01-08T09:50:23.391Z,52.43
2023-01-08T09:51:23.265Z,49.11
2023-01-08T09:52:23.225Z,57.02
2023-01-08T09:53:23.215Z,57.32
2023-01-08T09:54:23.214Z,53.78
2023-01-08T09:55:23.200Z,55.90
2023-01-08T09:56:23.219Z,52.97
2023-01-08T09:57:23.213Z,57.28
2023-01-08T09:58:23.188Z,53.78
2023-01-08T09:59:23.173Z,53.62
2023-01-08T10:00:23.229Z,53.70
2023-01-08T10:01:23.375Z,54.87
2023-01-08T10:02:23.319Z,49.52
2023-01-08T10:03:23.138Z,55.33
2023-01-08T10:04:23.134Z,59.25
2023-01-08T10:05:23.123Z,57.23
2023-01-08T10:06:23.212Z,57.16
2023-01-08T10:07:23.110Z,59.44
2023-01-08T10:08:23.096Z,54.39
2023-01-08T10:09:23.097Z,54.12
2023-01-08T10:10:23.170Z,55.79
2023-01-08T10:11:23.120Z,57.96
2023-01-08T10:12:23.068Z,59.35
2023-01-08T10:13:23.219Z,57.35
2023-01-08T10:14:23.056Z,57.05
2023-01-08T10:15:23.053Z,54.29
2023-01-08T10:16:23.124Z,48.38
2023-01-08T10:17:23.033Z,54.65
2023-01-08T10:18:23.022Z,56.09
2023-01-08T10:19:23.014Z,60.06
2023-01-08T10:20:23.025Z,52.42
2023-01-08T10:21:24.026Z,56.02
2023-01-08T10:22:23.067Z,52.28
2023-01-08T10:23:22.999Z,56.28
2023-01-08T10:24:22.973Z,53.94
2023-01-08T10:25:22.970Z,56.40
2023-01-08T10:26:22.989Z,61.80
2023-01-08T10:27:22.983Z,57.59
2023-01-08T10:28:22.952Z,54.69
2023-01-08T10:29:22.939Z,55.00
2023-01-08T10:30:22.938Z,53.44
2023-01-08T10:31:23.031Z,52.61
2023-01-08T10:32:22.915Z,57.24
2023-01-08T10:33:22.903Z,57.08
2023-01-08T10:34:22.899Z,53.86
2023-01-08T10:35:22.884Z,54.77
2023-01-08T10:36:22.901Z,56.42
2023-01-08T10:37:22.874Z,54.05
2023-01-08T10:38:22.948Z,59.02
2023-01-08T10:39:22.858Z,57.33
2023-01-08T10:40:22.844Z,57.72
2023-01-08T10:41:22.841Z,58.58
2023-01-08T10:42:22.859Z,53.24
2023-01-08T10:43:22.827Z,54.62
2023-01-08T10:44:22.822Z,57.05
2023-01-08T10:45:22.813Z,53.37
2023-01-08T10:46:22.838Z,58.91
2023-01-08T10:47:22.809Z,53.23
2023-01-08T10:48:22.788Z,58.27
2023-01-08T10:49:22.782Z,54.23
2023-01-08T10:50:22.776Z,55.94
2023-01-08T10:51:22.810Z,55.75
2023-01-08T10:52:22.766Z,56.45
2023-01-08T10:53:22.762Z,60.27
2023-01-08T10:54:22.744Z,59.52
2023-01-08T10:55:22.737Z,55.08
2023-01-08T10:56:22.756Z,58.15
2023-01-08T10:57:22.723Z,60.86
2023-01-08T10:58:22.741Z,55.95
2023-01-08T10:59:22.704Z,53.41
2023-01-08T11:00:22.766Z,54.02
2023-01-08T11:01:22.739Z,54.12
2023-01-08T11:02:22.725Z,56.99
2023-01-08T11:03:22.675Z,54.36
2023-01-08T11:04:22.683Z,58.72
2023-01-08T11:05:22.668Z,54.91
2023-01-08T11:06:22.681Z,53.87
2023-01-08T11:07:22.645Z,58.09
2023-01-08T11:08:23.245Z,57.22
2023-01-08T11:09:23.630Z,55.62
2023-01-08T11:10:22.644Z,55.30
2023-01-08T11:11:22.611Z,56.40
2023-01-08T11:12:22.625Z,57.58
2023-01-08T11:13:22.607Z,56.43
2023-01-08T11:14:22.599Z,58.68
2023-01-08T11:15:22.586Z,59.40
2023-01-08T11:16:22.598Z,56.25
2023-01-08T11:17:22.594Z,55.08
2023-01-08T11:18:22.564Z,51.77
2023-01-08T11:19:22.560Z,56.37
2023-01-08T11:20:22.620Z,57.83
2023-01-08T11:21:22.561Z,57.85
2023-01-08T11:22:22.563Z,58.23
2023-01-08T11:23:22.531Z,57.49
2023-01-08T11:24:22.514Z,59.28
2023-01-08T11:25:22.511Z,56.50
2023-01-08T11:26:22.504Z,58.35
2023-01-08T11:27:22.524Z,60.49
2023-01-08T11:28:22.490Z,55.21
2023-01-08T11:29:22.491Z,55.43
2023-01-08T11:30:22.549Z,56.94
2023-01-08T11:31:22.527Z,60.85
2023-01-08T11:32:22.492Z,59.36
2023-01-08T11:33:22.455Z,55.05
2023-01-08T11:34:22.446Z,56.43
2023-01-08T11:35:22.436Z,57.74
2023-01-08T11:36:22.439Z,55.46
2023-01-08T11:37:22.455Z,58.85
2023-01-08T11:38:22.469Z,55.78
2023-01-08T11:39:22.408Z,57.12
2023-01-08T11:40:22.514Z,55.92
2023-01-08T11:41:23.240Z,57.54
2023-01-08T11:42:22.418Z,57.48
2023-01-08T11:43:22.393Z,56.88
2023-01-08T11:44:22.375Z,60.14
2023-01-08T11:45:22.400Z,53.42
2023-01-08T11:46:22.357Z,57.30
2023-01-08T11:47:22.374Z,58.21
2023-01-08T11:48:22.344Z,58.51
2023-01-08T11:49:22.337Z,50.93
2023-01-08T11:50:22.366Z,60.10
2023-01-08T11:51:22.344Z,56.83
2023-01-08T11:52:22.319Z,57.64
2023-01-08T11:53:22.312Z,55.84
2023-01-08T11:54:22.300Z,57.20
2023-01-08T11:55:22.291Z,56.70
2023-01-08T11:56:22.314Z,56.80
2023-01-08T11:57:22.280Z,52.20
2023-01-08T11:58:22.266Z,57.33
2023-01-08T11:59:22.256Z,55.02
2023-01-08T12:00:22.301Z,54.30
2023-01-08T12:01:22.293Z,56.06
2023-01-08T12:02:22.311Z,55.57
2023-01-08T12:03:22.301Z,54.35
2023-01-08T12:04:22.221Z,52.62
2023-01-08T12:05:22.213Z,52.93
2023-01-08T12:06:22.234Z,53.15
2023-01-08T12:07:22.208Z,57.10
2023-01-08T12:08:22.193Z,55.44
2023-01-08T12:09:22.187Z,50.10
2023-01-08T12:10:22.177Z,47.26
2023-01-08T12:11:22.200Z,54.58
2023-01-08T12:12:22.161Z,54.59
2023-01-08T12:13:22.160Z,52.92
2023-01-08T12:14:22.147Z,55.98
2023-01-08T12:15:22.144Z,55.65
2023-01-08T12:16:22.171Z,51.22
2023-01-08T12:17:24.741Z,54.86
2023-01-08T12:18:22.119Z,58.09
2023-01-08T12:19:22.109Z,53.75
2023-01-08T12:20:22.102Z,55.35
2023-01-08T12:21:22.124Z,55.64
2023-01-08T12:22:22.087Z,56.91
2023-01-08T12:23:22.078Z,55.96
2023-01-08T12:24:22.067Z,53.05
2023-01-08T12:25:22.060Z,56.06
2023-01-08T12:26:22.051Z,56.59
2023-01-08T12:27:29.793Z,50.82
2023-01-08T12:28:24.032Z,54.78
2023-01-08T12:29:22.055Z,55.08
2023-01-08T12:30:22.018Z,57.57
2023-01-08T12:31:22.026Z,55.65
2023-01-08T12:32:22.060Z,55.30
2023-01-08T12:33:22.001Z,57.25
2023-01-08T12:34:21.983Z,61.04
2023-01-08T12:35:21.981Z,54.32
2023-01-08T12:36:21.997Z,57.88
2023-01-08T12:37:21.957Z,59.11
2023-01-08T12:38:21.946Z,52.97
2023-01-08T12:39:21.944Z,54.89
2023-01-08T12:40:21.941Z,54.91
2023-01-08T12:41:21.953Z,54.44
2023-01-08T12:42:21.925Z,54.76
2023-01-08T12:43:21.912Z,57.26
2023-01-08T12:44:21.910Z,58.83
2023-01-08T12:45:21.895Z,55.50
2023-01-08T12:46:21.917Z,55.55
2023-01-08T12:47:21.883Z,55.85
2023-01-08T12:48:21.876Z,56.64
2023-01-08T12:49:21.869Z,58.48
2023-01-08T12:50:21.889Z,54.17
2023-01-08T12:51:21.872Z,51.36
2023-01-08T12:52:21.842Z,55.93